Time;durP1;ratioP1;P1;durP2;ratioP2;P2;SDS_P1;SDS_P2;PMS_P1;PMS_P2;Temp;Humidity;BMP_temperature;BMP_pressure;BME280_temperature;BME280_humidity;BME280_pressure;Samples;Min_cycle;Max_cycle;Signal;HPM_P1;HPM_P2
2023/04/26 00:01:16;;;;;;;0.30;0.30;;;;;;;19.04;42.20;101512.84;5092245;28;20052;-45
2023/04/26 00:03:41;;;;;;;0.30;0.30;;;;;;;19.03;42.22;101505.69;5095843;28;20518;-45
2023/04/26 00:06:08;;;;;;;0.30;0.30;;;;;;;19.03;42.32;101503.75;5108173;28;20483;-45
2023/04/26 00:08:35;;;;;;;0.20;0.20;;;;;;;19.04;42.16;101510.97;5091942;28;20423;-45
2023/04/26 00:11:00;;;;;;;0.30;0.30;;;;;;;19.03;42.10;101511.19;5092151;28;20067;-48
2023/04/26 00:13:26;;;;;;;0.20;0.20;;;;;;;19.03;42.15;101509.25;5091227;28;20073;-46
2023/04/26 00:15:52;;;;;;;0.20;0.20;;;;;;;19.03;41.99;101506.50;5094473;28;20105;-46
2023/04/26 00:18:18;;;;;;;0.30;0.30;;;;;;;19.04;42.36;101518.38;5093755;28;20317;-46
2023/04/26 00:20:43;;;;;;;0.20;0.20;;;;;;;19.02;42.13;101504.84;5094991;28;20392;-45
2023/04/26 00:23:09;;;;;;;0.20;0.20;;;;;;;19.03;42.33;101505.69;5095243;28;20078;-47
2023/04/26 00:25:36;;;;;;;0.20;0.20;;;;;;;19.03;42.09;101509.25;5095368;28;20044;-45
2023/04/26 00:28:02;;;;;;;0.20;0.20;;;;;;;19.03;42.35;101503.75;5095635;28;20047;-47
2023/04/26 00:30:28;;;;;;;0.22;0.22;;;;;;;19.02;42.13;101502.09;5077153;28;20075;-47
2023/04/26 00:32:53;;;;;;;0.20;0.20;;;;;;;19.03;42.16;101508.44;5094267;28;20264;-45
2023/04/26 00:35:19;;;;;;;0.20;0.20;;;;;;;19.03;42.16;101500.16;5100674;28;20047;-45
2023/04/26 00:37:45;;;;;;;0.30;0.30;;;;;;;19.02;42.10;101492.97;5095236;28;20071;-46
2023/04/26 00:40:12;;;;;;;0.30;0.30;;;;;;;19.02;42.06;101484.69;5076972;28;20476;-45
2023/04/26 00:42:38;;;;;;;0.20;0.20;;;;;;;19.02;42.33;101490.22;5095116;28;20140;-44
2023/04/26 00:45:05;;;;;;;0.20;0.20;;;;;;;19.02;42.20;101495.75;5107992;28;20043;-44
2023/04/26 00:47:31;;;;;;;0.20;0.20;;;;;;;19.02;42.31;101490.22;5099325;28;20085;-46
2023/04/26 00:49:57;;;;;;;0.30;0.30;;;;;;;19.02;42.34;101488.28;5094674;28;20481;-45
2023/04/26 00:52:24;;;;;;;0.30;0.30;;;;;;;19.02;42.19;101490.22;5095100;28;20059;-47
2023/04/26 00:54:50;;;;;;;0.20;0.20;;;;;;;19.02;42.12;101485.53;5095035;28;20075;-44
2023/04/26 00:57:16;;;;;;;0.20;0.20;;;;;;;19.03;42.17;101483.59;5093471;28;20052;-45
2023/04/26 00:59:41;;;;;;;0.20;0.20;;;;;;;19.02;42.46;101490.22;5093560;28;20044;-47
2023/04/26 01:02:08;;;;;;;0.30;0.30;;;;;;;19.01;42.42;101489.41;5093991;28;20055;-45
2023/04/26 01:04:33;;;;;;;0.20;0.20;;;;;;;19.01;42.34;101494.91;5094652;28;20043;-46
2023/04/26 01:07:00;;;;;;;0.30;0.30;;;;;;;19.02;42.42;101492.97;5095148;28;20432;-45
2023/04/26 01:09:27;;;;;;;0.30;0.30;;;;;;;19.01;42.45;101492.16;5094858;28;20071;-45
2023/04/26 01:11:55;;;;;;;0.30;0.30;;;;;;;19.01;42.29;101494.91;5094793;28;20046;-46
2023/04/26 01:14:21;;;;;;;0.20;0.20;;;;;;;19.00;42.58;101496.03;5095185;28;20089;-47
2023/04/26 01:16:47;;;;;;;0.30;0.30;;;;;;;19.01;42.18;101503.19;5093427;28;20484;-44
2023/04/26 01:19:14;;;;;;;0.20;0.20;;;;;;;19.02;42.29;101498.50;5094870;28;20051;-48
2023/04/26 01:21:40;;;;;;;0.20;0.20;;;;;;;19.02;42.05;101506.78;5094693;28;20055;-47
2023/04/26 01:24:07;;;;;;;0.30;0.30;;;;;;;19.00;42.13;101497.94;5094748;28;20096;-45
2023/04/26 01:26:32;;;;;;;0.30;0.30;;;;;;;19.00;42.32;101501.53;5094543;28;20039;-46
2023/04/26 01:28:58;;;;;;;0.30;0.30;;;;;;;19.02;42.25;101506.78;5094892;28;20052;-45
2023/04/26 01:31:24;;;;;;;0.30;0.30;;;;;;;19.01;42.22;101507.88;5094248;28;20104;-45
2023/04/26 01:33:49;;;;;;;0.30;0.30;;;;;;;19.01;42.36;101499.59;5096974;28;20055;-45
2023/04/26 01:36:15;;;;;;;0.20;0.20;;;;;;;19.00;42.41;101501.53;5109067;28;20054;-46
2023/04/26 01:38:41;;;;;;;0.30;0.30;;;;;;;19.01;42.09;101500.44;5094784;28;20492;-45
2023/04/26 01:41:06;;;;;;;0.25;0.25;;;;;;;19.00;42.59;101497.94;5109348;28;20051;-47
2023/04/26 01:43:32;;;;;;;0.20;0.20;;;;;;;19.00;42.41;101498.78;5103055;28;20051;-45
2023/04/26 01:45:58;;;;;;;0.20;0.20;;;;;;;19.01;42.17;101502.38;5093513;28;20515;-46
2023/04/26 01:48:23;;;;;;;0.20;0.20;;;;;;;18.99;42.08;101497.09;5093767;28;20059;-48
2023/04/26 01:50:49;;;;;;;0.20;0.20;;;;;;;19.00;42.14;101490.50;5092932;28;20711;-46
2023/04/26 01:53:15;;;;;;;0.20;0.20;;;;;;;19.00;42.10;101495.19;5093898;28;20043;-47
2023/04/26 01:55:40;;;;;;;0.20;0.20;;;;;;;19.00;42.30;101489.66;5111709;28;20050;-45
2023/04/26 01:58:06;;;;;;;0.30;0.30;;;;;;;19.00;42.18;101492.44;5094628;28;20160;-45
2023/04/26 02:00:32;;;;;;;0.20;0.20;;;;;;;19.00;42.18;101493.25;5093490;28;20180;-45
2023/04/26 02:02:58;;;;;;;0.20;0.20;;;;;;;19.00;42.10;101501.53;5093899;28;20528;-45
2023/04/26 02:05:24;;;;;;;0.20;0.20;;;;;;;19.00;42.03;101503.47;5108229;28;20046;-45
2023/04/26 02:07:50;;;;;;;0.20;0.20;;;;;;;19.00;42.25;101497.94;5096964;27;20051;-46
2023/04/26 02:10:15;;;;;;;0.30;0.30;;;;;;;18.99;42.37;101494.34;5093513;28;20183;-48
2023/04/26 02:12:41;;;;;;;0.20;0.20;;;;;;;19.00;42.36;101507.06;5093122;28;20101;-45
2023/04/26 02:15:07;;;;;;;0.30;0.30;;;;;;;19.00;42.29;101497.94;5093713;28;20047;-47
2023/04/26 02:17:33;;;;;;;0.30;0.30;;;;;;;18.98;42.17;101500.97;5091414;28;20550;-45
2023/04/26 02:19:58;;;;;;;0.30;0.30;;;;;;;19.00;42.03;101504.31;5092645;28;20036;-44
2023/04/26 02:22:25;;;;;;;0.30;0.30;;;;;;;19.00;42.32;101504.31;5093529;28;20055;-46
2023/04/26 02:24:51;;;;;;;0.30;0.30;;;;;;;19.00;42.24;101500.72;5093346;28;20078;-45
2023/04/26 02:27:18;;;;;;;0.30;0.30;;;;;;;18.99;42.19;101497.09;5093761;28;20410;-47
2023/04/26 02:29:44;;;;;;;0.20;0.20;;;;;;;18.99;42.02;101493.50;5075515;28;20044;-45
2023/04/26 02:32:12;;;;;;;0.30;0.30;;;;;;;19.00;42.36;101500.72;5092352;28;20059;-46
2023/04/26 02:34:37;;;;;;;0.20;0.20;;;;;;;18.99;42.47;101496.25;5099170;28;20051;-46
2023/04/26 02:37:03;;;;;;;0.20;0.20;;;;;;;18.99;42.29;101497.09;5103089;27;20058;-45
2023/04/26 02:39:29;;;;;;;0.30;0.30;;;;;;;18.98;42.28;101495.44;5092089;28;20051;-48
2023/04/26 02:41:54;;;;;;;0.20;0.20;;;;;;;18.98;42.22;101492.69;5093718;28;20126;-45
2023/04/26 02:44:20;;;;;;;0.30;0.30;;;;;;;18.98;42.34;101483.56;5093130;28;20498;-47
2023/04/26 02:46:46;;;;;;;0.25;0.25;;;;;;;18.98;42.17;101494.59;5093859;28;20050;-45
2023/04/26 02:49:12;;;;;;;0.30;0.30;;;;;;;18.98;42.40;101489.91;5093398;28;20237;-46
2023/04/26 02:51:37;;;;;;;0.30;0.30;;;;;;;18.98;42.06;101492.69;5092476;28;20051;-48
2023/04/26 02:54:03;;;;;;;0.30;0.30;;;;;;;18.98;42.03;101498.19;5094848;28;20408;-46
2023/04/26 02:56:32;;;;;;;0.20;0.20;;;;;;;18.97;42.29;101493.78;5107780;27;20407;-45
2023/04/26 02:58:57;;;;;;;0.30;0.30;;;;;;;18.98;42.33;101492.69;5093443;28;20258;-46
2023/04/26 03:01:23;;;;;;;0.22;0.22;;;;;;;18.98;42.31;101491.84;5093339;28;20096;-45
2023/04/26 03:03:50;;;;;;;0.25;0.25;;;;;;;18.97;42.12;101491.03;5093710;28;20047;-46
2023/04/26 03:06:16;;;;;;;0.20;0.20;;;;;;;18.98;42.09;101486.31;5093222;28;20614;-48
2023/04/26 03:08:42;;;;;;;0.30;0.30;;;;;;;18.97;42.05;101484.69;5093682;28;20043;-44
2023/04/26 03:11:07;;;;;;;0.20;0.20;;;;;;;18.97;42.28;101485.50;5092563;28;20048;-45
2023/04/26 03:13:33;;;;;;;0.20;0.20;;;;;;;18.97;42.00;101479.97;5092621;28;20047;-46
2023/04/26 03:15:59;;;;;;;0.30;0.30;;;;;;;18.96;42.14;101481.09;5108443;28;20439;-45
2023/04/26 03:18:24;;;;;;;0.30;0.30;;;;;;;18.96;42.39;101478.31;5092110;28;20093;-47
2023/04/26 03:20:50;;;;;;;0.30;0.30;;;;;;;18.97;42.12;101477.22;5092070;28;20051;-46
2023/04/26 03:23:17;;;;;;;0.30;0.30;;;;;;;18.97;42.35;101479.16;5091253;28;20092;-45
2023/04/26 03:25:42;;;;;;;0.30;0.30;;;;;;;18.97;42.04;101473.63;5107033;28;20047;-46
2023/04/26 03:28:08;;;;;;;0.30;0.30;;;;;;;18.97;42.30;101470.88;5093774;27;20051;-47
2023/04/26 03:30:33;;;;;;;0.30;0.30;;;;;;;18.97;42.38;101470.88;5092248;28;20044;-44
2023/04/26 03:32:59;;;;;;;0.20;0.20;;;;;;;18.97;42.09;101477.22;5092516;28;20438;-46
2023/04/26 03:35:25;;;;;;;0.30;0.30;;;;;;;18.97;42.42;101470.88;5093468;28;20052;-47
2023/04/26 03:37:50;;;;;;;0.28;0.28;;;;;;;18.97;42.15;101465.34;5092934;28;20040;-45
2023/04/26 03:40:18;;;;;;;0.20;0.20;;;;;;;18.96;42.31;101459.00;5092558;28;20506;-46
2023/04/26 03:42:44;;;;;;;0.30;0.30;;;;;;;18.96;42.06;101464.53;5092350;28;20282;-45
2023/04/26 03:45:10;;;;;;;0.30;0.30;;;;;;;18.96;42.25;101469.22;5092564;28;20048;-45
2023/04/26 03:47:36;;;;;;;0.28;0.28;;;;;;;18.95;42.17;101471.13;5090703;28;20051;-46
2023/04/26 03:50:02;;;;;;;0.20;0.20;;;;;;;18.96;42.31;101464.53;5095434;28;20281;-44
2023/04/26 03:52:27;;;;;;;0.20;0.20;;;;;;;18.96;42.22;101470.03;5095379;28;20050;-48
2023/04/26 03:54:53;;;;;;;0.30;0.30;;;;;;;18.96;42.25;101470.03;5095504;28;20047;-46
2023/04/26 03:57:19;;;;;;;0.30;0.30;;;;;;;18.96;42.04;101469.22;5095564;28;20411;-45
2023/04/26 03:59:44;;;;;;;0.30;0.30;;;;;;;18.95;42.38;101465.59;5096019;28;20082;-45
2023/04/26 04:02:10;;;;;;;0.30;0.30;;;;;;;18.95;41.99;101475.81;5095673;28;20044;-46
2023/04/26 04:04:36;;;;;;;0.30;0.30;;;;;;;18.96;42.34;101474.75;5095572;28;20058;-44
2023/04/26 04:07:02;;;;;;;0.30;0.30;;;;;;;18.95;42.01;101475.81;5096156;28;20040;-47
2023/04/26 04:09:28;;;;;;;0.30;0.30;;;;;;;18.95;42.12;101473.88;5095957;28;20461;-44
2023/04/26 04:11:53;;;;;;;0.30;0.30;;;;;;;18.95;42.26;101471.13;5095770;28;20680;-45
2023/04/26 04:14:19;;;;;;;0.30;0.30;;;;;;;18.95;41.97;101471.13;5096277;28;20130;-45
2023/04/26 04:16:45;;;;;;;0.30;0.30;;;;;;;18.95;42.25;101468.34;5108178;28;20040;-46
2023/04/26 04:19:11;;;;;;;0.30;0.30;;;;;;;18.95;42.39;101476.63;5095092;28;20048;-44
2023/04/26 04:21:36;;;;;;;0.20;0.20;;;;;;;18.95;42.05;101473.88;5095571;28;20049;-45
2023/04/26 04:24:02;;;;;;;0.30;0.30;;;;;;;18.96;42.31;101480.25;5095381;28;20100;-46
2023/04/26 04:26:28;;;;;;;0.20;0.20;;;;;;;18.95;42.17;101493.19;5094941;28;20051;-44
2023/04/26 04:28:56;;;;;;;0.30;0.30;;;;;;;18.95;42.21;101493.19;5095565;28;20105;-45
2023/04/26 04:31:21;;;;;;;0.20;0.20;;;;;;;18.95;41.89;101489.59;5095380;28;20116;-46
2023/04/26 04:33:47;;;;;;;0.30;0.30;;;;;;;18.94;42.29;101491.53;5075165;28;20226;-45
2023/04/26 04:36:15;;;;;;;0.30;0.30;;;;;;;18.94;41.97;101491.53;5091678;28;20051;-45
2023/04/26 04:38:41;;;;;;;0.20;0.20;;;;;;;18.94;42.04;101491.53;5094023;28;20075;-45
2023/04/26 04:41:07;;;;;;;0.30;0.30;;;;;;;18.94;42.26;101488.78;5100785;28;20396;-45
2023/04/26 04:43:33;;;;;;;0.20;0.20;;;;;;;18.95;42.22;101495.13;5086685;27;20271;-45
2023/04/26 04:45:59;;;;;;;0.30;0.30;;;;;;;18.95;42.06;101500.66;5090318;28;20408;-47
2023/04/26 04:48:25;;;;;;;0.30;0.30;;;;;;;18.95;42.02;101497.88;5094028;28;20051;-45
2023/04/26 04:50:51;;;;;;;0.30;0.30;;;;;;;18.93;42.02;101492.66;5095479;28;20043;-46
2023/04/26 04:53:17;;;;;;;0.30;0.30;;;;;;;18.93;41.97;101491.81;5078248;28;20051;-48
2023/04/26 04:55:43;;;;;;;0.30;0.30;;;;;;;18.94;39.82;101490.72;5107071;28;20094;-45
2023/04/26 04:58:09;;;;;;;0.30;0.30;;;;;;;18.93;42.02;101498.16;5094973;28;20471;-45
2023/04/26 05:00:36;;;;;;;0.30;0.30;;;;;;;18.93;42.14;101500.94;5094466;28;20047;-45
2023/04/26 05:03:02;;;;;;;0.20;0.20;;;;;;;18.93;42.07;101509.22;5095668;28;20086;-48
2023/04/26 05:05:28;;;;;;;0.30;0.30;;;;;;;18.91;42.26;101508.66;5102136;28;20054;-46
2023/04/26 05:07:54;;;;;;;0.30;0.30;;;;;;;18.92;41.99;101504.78;5098449;28;20047;-45
2023/04/26 05:10:20;;;;;;;0.30;0.30;;;;;;;18.93;42.07;101511.97;5095275;28;20097;-46
2023/04/26 05:12:45;;;;;;;0.25;0.25;;;;;;;18.93;42.25;101519.41;5092958;28;20411;-48
2023/04/26 05:15:11;;;;;;;0.30;0.30;;;;;;;18.91;42.09;101514.19;5086311;28;20047;-46
2023/04/26 05:17:37;;;;;;;0.30;0.30;;;;;;;18.91;42.16;101514.19;5080463;28;20048;-49
2023/04/26 05:20:06;;;;;;;0.20;0.20;;;;;;;18.91;42.24;101516.06;5093757;28;20039;-45
2023/04/26 05:22:33;;;;;;;0.30;0.30;;;;;;;18.90;42.19;101520.78;5090220;28;20364;-48
2023/04/26 05:24:59;;;;;;;0.30;0.30;;;;;;;18.89;42.19;101521.88;5091774;28;20092;-46
2023/04/26 05:27:27;;;;;;;0.30;0.30;;;;;;;18.52;38.00;101522.66;5102063;28;20043;-45
2023/04/26 05:29:53;;;;;;;0.20;0.20;;;;;;;18.59;39.43;101533.47;5093808;28;20051;-46
2023/04/26 05:32:18;;;;;;;0.25;0.25;;;;;;;18.75;40.25;101523.44;5095564;28;20047;-46
2023/04/26 05:34:44;;;;;;;0.30;0.30;;;;;;;18.82;40.77;101520.44;5086685;28;20363;-46
2023/04/26 05:37:10;;;;;;;0.30;0.30;;;;;;;18.85;41.62;101530.94;5087102;28;20088;-48
2023/04/26 05:39:36;;;;;;;0.20;0.20;;;;;;;18.87;41.39;101534.25;5091715;28;20051;-45
2023/04/26 05:42:02;;;;;;;0.30;0.30;;;;;;;18.88;41.52;101539.53;5083510;28;20055;-46
2023/04/26 05:44:28;;;;;;;0.30;0.30;;;;;;;18.90;41.26;101539.25;5091568;28;20082;-46
2023/04/26 05:46:54;;;;;;;0.28;0.28;;;;;;;18.90;40.04;101539.25;5078680;28;20086;-45
2023/04/26 05:49:19;;;;;;;0.30;0.30;;;;;;;18.89;40.91;101538.44;5098614;28;20048;-47
2023/04/26 05:51:45;;;;;;;0.30;0.30;;;;;;;18.91;39.97;101535.41;5088037;28;20054;-53
2023/04/26 05:54:11;;;;;;;0.30;0.30;;;;;;;18.92;41.11;101543.44;5084940;28;20047;-45
2023/04/26 05:56:36;;;;;;;0.30;0.30;;;;;;;18.92;39.89;101546.19;5084292;28;20052;-45
2023/04/26 05:59:02;;;;;;;0.30;0.30;;;;;;;18.89;39.64;101548.63;5079198;28;20353;-46
2023/04/26 06:01:28;;;;;;;0.30;0.30;;;;;;;18.87;39.23;101543.41;5069725;28;20052;-45
2023/04/26 06:03:53;;;;;;;0.30;0.30;;;;;;;18.91;39.95;101549.19;5063613;28;20521;-44
2023/04/26 06:06:25;;;;;;;0.20;0.20;;;;;;;18.91;39.56;101543.69;5060480;28;20043;-44
2023/04/26 06:08:51;;;;;;;0.30;0.30;;;;;;;18.93;40.42;101549.78;5065060;28;20084;-45
2023/04/26 06:11:17;;;;;;;0.20;0.20;;;;;;;18.94;40.39;101554.19;5075139;28;20124;-47
2023/04/26 06:13:43;;;;;;;0.30;0.30;;;;;;;18.94;39.99;101557.78;5071230;28;20465;-46
2023/04/26 06:16:08;;;;;;;0.30;0.30;;;;;;;18.93;39.28;101555.31;5075146;28;20047;-49
2023/04/26 06:18:34;;;;;;;0.20;0.20;;;;;;;18.90;39.00;101558.59;5074442;28;20540;-48
2023/04/26 06:21:00;;;;;;;0.30;0.30;;;;;;;18.91;39.68;101566.63;5071086;28;20044;-48
2023/04/26 06:23:25;;;;;;;0.30;0.30;;;;;;;18.94;39.49;101570.75;5065702;28;20048;-49
2023/04/26 06:25:51;;;;;;;0.30;0.30;;;;;;;18.95;39.53;101572.41;5069613;28;20048;-45
2023/04/26 06:28:17;;;;;;;0.30;0.30;;;;;;;18.92;39.75;101572.97;5079585;28;20052;-47
2023/04/26 06:30:42;;;;;;;0.30;0.30;;;;;;;18.93;39.79;101575.44;5071009;28;20044;-46
2023/04/26 06:33:08;;;;;;;0.20;0.20;;;;;;;18.93;39.60;101575.44;5085873;28;20709;-46
2023/04/26 06:35:41;;;;;;;0.20;0.20;;;;;;;18.95;39.86;101569.66;5074351;28;20464;-45
2023/04/26 06:38:07;;;;;;;0.30;0.30;;;;;;;18.95;41.14;101564.97;5074476;28;20047;-45
2023/04/26 06:40:35;;;;;;;0.30;0.30;;;;;;;18.97;40.50;101561.97;5064197;28;20152;-46
2023/04/26 06:43:01;;;;;;;;;;;;;;;18.97;41.58;101573.81;5073609;28;20508;-48
2023/04/26 06:45:27;;;;;;;0.20;0.20;;;;;;;18.96;41.48;101569.41;5073227;28;20461;-44
2023/04/26 06:47:52;;;;;;;0.30;0.30;;;;;;;18.96;40.08;101572.16;5074151;28;20044;-47
2023/04/26 06:50:18;;;;;;;0.20;0.20;;;;;;;18.97;39.14;101579.34;5074224;28;20044;-47
2023/04/26 06:52:44;;;;;;;0.30;0.30;;;;;;;18.96;39.30;101569.41;5074552;28;20479;-48
2023/04/26 06:55:09;;;;;;;0.20;0.20;;;;;;;18.96;39.43;101572.16;5070090;28;20369;-45
2023/04/26 06:57:35;;;;;;;0.20;0.20;;;;;;;18.97;40.94;101570.25;5059761;28;20044;-45
2023/04/26 07:00:02;;;;;;;0.30;0.30;;;;;;;18.92;40.06;101567.44;5067678;28;20047;-46
2023/04/26 07:02:28;;;;;;;0.28;0.28;;;;;;;18.96;39.83;101571.34;5057900;28;20262;-44
2023/04/26 07:04:55;;;;;;;0.30;0.30;;;;;;;18.98;39.83;101564.44;5050209;28;20137;-45
2023/04/26 07:07:21;;;;;;;0.20;0.20;;;;;;;18.95;39.86;101569.66;5048662;28;20112;-44
2023/04/26 07:09:46;;;;;;;0.30;0.30;;;;;;;18.96;39.59;101579.63;5048325;28;21123;-45
2023/04/26 07:12:12;;;;;;;0.20;0.20;;;;;;;18.96;39.72;101583.22;5055269;28;20047;-45
2023/04/26 07:14:40;;;;;;;0.30;0.30;;;;;;;18.97;39.56;101570.25;5053476;28;20488;-46
2023/04/26 07:17:06;;;;;;;0.30;0.30;;;;;;;18.96;39.24;101568.59;5061796;28;20059;-45
2023/04/26 07:19:32;;;;;;;0.30;0.30;;;;;;;18.96;39.12;101571.34;5072988;28;20047;-46
2023/04/26 07:21:57;;;;;;;0.20;0.20;;;;;;;18.96;39.09;101569.41;5067414;28;20702;-46
2023/04/26 07:24:23;;;;;;;0.30;0.30;;;;;;;18.97;39.05;101573.00;5072297;28;20122;-45
2023/04/26 07:26:49;;;;;;;0.30;0.30;;;;;;;18.97;39.21;101571.06;5075318;28;20043;-45
2023/04/26 07:29:14;;;;;;;0.30;0.30;;;;;;;18.98;39.37;101569.97;5075213;28;20697;-46
2023/04/26 07:31:41;;;;;;;0.30;0.30;;;;;;;19.00;39.58;101575.25;5076533;28;20047;-44
2023/04/26 07:34:07;;;;;;;0.30;0.30;;;;;;;19.00;40.08;101580.75;5073349;28;20050;-47
2023/04/26 07:36:32;;;;;;;0.30;0.30;;;;;;;19.00;39.83;101583.53;5073026;28;20044;-47
2023/04/26 07:38:58;;;;;;;0.30;0.30;;;;;;;19.01;40.32;101583.25;5080974;28;20435;-45
2023/04/26 07:41:24;;;;;;;0.30;0.30;;;;;;;19.01;41.40;101577.72;5073236;28;20493;-45
2023/04/26 07:43:50;;;;;;;0.30;0.30;;;;;;;19.00;40.23;101566.97;5076181;28;20048;-46
2023/04/26 07:46:16;;;;;;;0.30;0.30;;;;;;;19.00;40.07;101567.78;5071402;28;22091;-46
2023/04/26 07:48:42;;;;;;;0.30;0.30;;;;;;;19.00;39.72;101567.78;5072406;28;20040;-45
2023/04/26 07:51:09;;;;;;;0.30;0.30;;;;;;;19.03;40.27;101571.94;5078298;28;20044;-47
2023/04/26 07:53:35;;;;;;;0.30;0.30;;;;;;;19.02;38.34;101570.28;5075933;28;20051;-45
2023/04/26 07:56:03;;;;;;;0.30;0.30;;;;;;;19.01;39.03;101561.16;5076126;28;20056;-45
2023/04/26 07:58:31;;;;;;;;;;;;;;;19.01;38.37;101568.63;5077491;28;20066;-45
2023/04/26 08:00:58;;;;;;;0.32;0.32;;;;;;;19.01;38.30;101576.91;5073997;28;20697;-45
2023/04/26 08:03:23;;;;;;;0.30;0.30;;;;;;;19.01;39.30;101566.69;5064431;28;20052;-46
2023/04/26 08:05:50;;;;;;;0.30;0.30;;;;;;;19.02;40.66;101560.06;5062764;28;20040;-45
2023/04/26 08:08:16;;;;;;;0.30;0.30;;;;;;;19.02;39.36;101554.53;5069590;28;20446;-48
2023/04/26 08:10:44;;;;;;;0.30;0.30;;;;;;;19.01;38.84;101565.84;5064182;28;20850;-48
2023/04/26 08:13:10;;;;;;;0.30;0.30;;;;;;;19.00;38.99;101564.19;5045253;28;20676;-46
2023/04/26 08:15:36;;;;;;;0.30;0.30;;;;;;;19.00;39.43;101567.78;5065005;28;20539;-46
2023/04/26 08:18:02;;;;;;;0.30;0.30;;;;;;;19.01;39.30;101569.44;5071729;28;20039;-48
2023/04/26 08:20:27;;;;;;;0.30;0.30;;;;;;;19.00;39.13;101565.03;5069819;28;20048;-47
2023/04/26 08:22:55;;;;;;;0.20;0.20;;;;;;;19.03;39.79;101558.13;5066356;28;20059;-46
2023/04/26 08:25:22;;;;;;;0.35;0.35;;;;;;;19.02;39.60;101565.59;5064853;28;20059;-44
2023/04/26 08:27:48;;;;;;;0.30;0.30;;;;;;;19.03;39.02;101560.88;5067806;28;20051;-46
2023/04/26 08:30:13;;;;;;;0.30;0.30;;;;;;;19.01;39.51;101569.44;5072267;28;20436;-46
2023/04/26 08:32:39;;;;;;;0.20;0.20;;;;;;;19.01;39.21;101566.69;5056369;28;20543;-45
2023/04/26 08:35:05;;;;;;;0.30;0.30;;;;;;;19.00;39.95;101561.44;5052626;28;20480;-44
2023/04/26 08:37:31;;;;;;;0.30;0.30;;;;;;;19.00;39.20;101564.19;5064441;28;20040;-46
2023/04/26 08:39:57;;;;;;;0.25;0.25;;;;;;;18.95;38.92;101576.00;5066666;28;20043;-46
2023/04/26 08:42:26;;;;;;;0.30;0.30;;;;;;;19.00;39.76;101575.25;5066795;28;20408;-47
2023/04/26 08:44:52;;;;;;;0.30;0.30;;;;;;;19.01;39.57;101577.72;5064405;28;20740;-47
2023/04/26 08:47:37;;;;;;;0.30;0.30;;;;;;;19.01;39.26;101574.97;5064443;28;20377;-45
2023/04/26 08:50:04;;;;;;;0.30;0.30;;;;;;;19.02;39.80;101587.66;5069200;28;20333;-47
2023/04/26 08:52:31;;;;;;;0.30;0.30;;;;;;;19.01;39.44;101577.72;5077245;28;20575;-46
2023/04/26 08:54:58;;;;;;;0.30;0.30;;;;;;;19.03;39.64;101571.94;5058032;28;20047;-49
2023/04/26 08:57:24;;;;;;;0.30;0.30;;;;;;;19.03;39.52;101569.16;5076833;28;20047;-47
2023/04/26 08:59:51;;;;;;;0.30;0.30;;;;;;;19.03;39.50;101575.53;5073639;28;20044;-49
2023/04/26 09:02:19;;;;;;;0.20;0.20;;;;;;;19.03;40.08;101577.44;5075309;28;20581;-46
2023/04/26 09:04:46;;;;;;;0.20;0.20;;;;;;;19.02;39.70;101584.91;5076554;28;20039;-45
2023/04/26 09:07:29;;;;;;;0.30;0.30;;;;;;;19.03;39.80;101582.97;5066674;28;20051;-45
2023/04/26 09:09:57;;;;;;;0.30;0.30;;;;;;;19.02;38.58;101581.31;5073656;28;20132;-48
2023/04/26 09:12:23;;;;;;;0.20;0.20;;;;;;;19.01;37.74;101577.72;5078164;28;20051;-46
2023/04/26 09:14:49;;;;;;;0.30;0.30;;;;;;;19.02;38.34;101584.06;5075207;28;20054;-46
2023/04/26 09:17:36;;;;;;;0.25;0.25;;;;;;;18.96;37.64;101582.38;5080182;28;20120;-50
2023/04/26 09:20:23;;;;;;;0.20;0.20;;;;;;;19.03;38.29;101571.94;5067194;28;20043;-46
2023/04/26 09:22:52;;;;;;;0.30;0.30;;;;;;;19.04;39.51;101570.81;5056880;28;20910;-48
2023/04/26 09:25:18;;;;;;;;;;;;;;;19.04;38.65;101566.16;5076264;28;20082;-44
2023/04/26 09:27:45;;;;;;;0.25;0.25;;;;;;;19.05;38.56;101564.22;5078341;28;19963;-49
2023/04/26 09:30:16;;;;;;;0.20;0.20;;;;;;;19.06;39.70;101557.59;5076385;28;20428;-48
2023/04/26 09:32:55;;;;;;;0.20;0.20;;;;;;;19.07;39.48;101550.16;5062170;28;20524;-45
2023/04/26 09:35:24;;;;;;;0.20;0.20;;;;;;;19.04;38.60;101554.25;5072521;28;20047;-45
2023/04/26 09:38:07;;;;;;;0.30;0.30;;;;;;;19.05;38.44;101555.94;5056910;28;22979;-45
2023/04/26 09:40:44;;;;;;;0.30;0.30;;;;;;;19.04;39.22;101549.59;5067380;28;20594;-54
2023/04/26 09:43:14;;;;;;;0.20;0.20;;;;;;;19.03;38.09;101547.09;5060625;28;20039;-45
2023/04/26 09:45:49;;;;;;;0.30;0.30;;;;;;;19.02;38.61;101557.31;5067994;28;20076;-46
2023/04/26 09:48:27;;;;;;;0.30;0.30;;;;;;;19.02;38.36;101542.66;5069802;28;20056;-45
2023/04/26 09:50:56;;;;;;;0.20;0.20;;;;;;;19.03;38.16;101549.84;5072491;28;20393;-46
2023/04/26 09:53:35;;;;;;;0.30;0.30;;;;;;;19.05;37.61;101547.66;5064973;28;20055;-45
2023/04/26 09:56:07;;;;;;;0.30;0.30;;;;;;;18.87;36.45;101543.41;5081250;28;20091;-45
2023/04/26 09:58:35;;;;;;;0.30;0.30;;;;;;;19.03;37.22;101541.56;5080356;28;20146;-47
2023/04/26 10:01:02;;;;;;;0.20;0.20;;;;;;;19.05;37.84;101545.75;5078440;28;20066;-46
2023/04/26 10:03:28;;;;;;;0.30;0.30;;;;;;;19.05;37.95;101547.66;5087340;28;20486;-47
2023/04/26 10:05:54;;;;;;;0.30;0.30;;;;;;;19.07;38.00;101547.41;5080358;28;20048;-46
2023/04/26 10:08:19;;;;;;;0.20;0.20;;;;;;;19.04;37.99;101545.97;5082537;28;20151;-45
2023/04/26 10:10:46;;;;;;;0.30;0.30;;;;;;;19.05;37.97;101542.16;5077936;28;21329;-45
2023/04/26 10:13:12;;;;;;;0.22;0.22;;;;;;;19.04;37.60;101543.22;5074708;28;20425;-45
2023/04/26 10:15:38;;;;;;;0.30;0.30;;;;;;;19.04;37.82;101540.47;5079752;28;20135;-45
2023/04/26 10:18:04;;;;;;;0.20;0.20;;;;;;;19.04;38.07;101544.09;5082598;27;20079;-45
2023/04/26 10:20:30;;;;;;;0.30;0.30;;;;;;;19.05;38.25;101542.16;5077902;28;20153;-46
2023/04/26 10:23:00;;;;;;;0.30;0.30;;;;;;;19.07;38.37;101539.13;5076207;28;20040;-45
2023/04/26 10:25:41;;;;;;;0.20;0.20;;;;;;;18.93;36.01;101535.97;5073988;28;20440;-45
2023/04/26 10:28:07;;;;;;;0.28;0.28;;;;;;;19.05;36.78;101542.97;5073785;28;20048;-47
2023/04/26 10:30:53;;;;;;;0.20;0.20;;;;;;;19.10;37.63;101544.09;5076773;28;20040;-46
2023/04/26 10:33:19;;;;;;;0.30;0.30;;;;;;;19.10;38.30;101546.88;5074714;28;20039;-45
2023/04/26 10:36:03;;;;;;;0.30;0.30;;;;;;;19.11;37.97;101543.00;5074822;28;20757;-45
2023/04/26 10:38:29;;;;;;;0.20;0.20;;;;;;;19.11;38.57;101538.31;5071280;28;20099;-45
2023/04/26 10:40:55;;;;;;;0.20;0.20;;;;;;;19.10;38.27;101538.59;5071678;28;20059;-46
2023/04/26 10:43:28;;;;;;;0.30;0.30;;;;;;;19.11;38.29;101543.00;5059423;28;20048;-45
2023/04/26 10:45:55;;;;;;;0.30;0.30;;;;;;;19.11;38.38;101543.00;5062437;28;20527;-45
2023/04/26 10:48:30;;;;;;;0.20;0.20;;;;;;;19.11;38.46;101543.00;5066127;27;20067;-48
2023/04/26 10:59:07;;;;;;;0.20;0.20;;;;;;;19.17;38.62;101528.97;5132944;27;20424;-46
2023/04/26 11:01:53;;;;;;;0.20;0.20;;;;;;;19.17;38.61;101523.47;5101728;27;20152;-47
2023/04/26 11:04:18;;;;;;;0.25;0.25;;;;;;;19.18;40.22;101524.28;5114544;27;20066;-49
2023/04/26 11:06:49;;;;;;;0.30;0.30;;;;;;;19.16;38.97;101523.72;5114460;27;20050;-47
2023/04/26 11:09:35;;;;;;;0.30;0.30;;;;;;;19.15;38.69;101533.09;5094287;27;20043;-46
2023/04/26 11:12:03;;;;;;;0.20;0.20;;;;;;;19.13;39.02;101530.63;5081571;27;20058;-51
2023/04/26 11:14:29;;;;;;;0.20;0.20;;;;;;;19.13;38.87;101524.22;5090566;27;20072;-46
2023/04/26 11:16:55;;;;;;;0.20;0.20;;;;;;;19.10;38.51;101520.09;5095246;27;20644;-47
2023/04/26 11:19:21;;;;;;;0.20;0.20;;;;;;;19.08;37.87;101524.19;5109194;27;20043;-46
2023/04/26 11:21:46;;;;;;;0.30;0.30;;;;;;;19.07;38.43;101522.53;5112727;27;20096;-46
2023/04/26 11:24:14;;;;;;;0.20;0.20;;;;;;;19.09;38.08;101517.59;5107389;27;20059;-46
2023/04/26 11:26:40;;;;;;;0.20;0.20;;;;;;;19.09;38.08;101514.84;5111877;27;20346;-48
2023/04/26 11:29:08;;;;;;;0.30;0.30;;;;;;;19.10;37.98;101522.03;5106966;27;20073;-47
2023/04/26 11:31:35;;;;;;;0.20;0.20;;;;;;;19.12;38.38;101517.88;5092955;27;20047;-46
2023/04/26 11:34:04;;;;;;;0.20;0.20;;;;;;;19.11;38.18;101516.22;5088880;27;20044;-46